• Join FlightAware (Why Join?)
  • Login
  • US Flag 
Rudolph Flight #1: Arrived! 
06:35PM EST


 

Airport Tracker/Info


-or-


 

Live Flight TrackerFlight Track Log ✈ CTL18 ✈ 23-Apr-2013 ✈ KYIP - KBKL

Flight Track Log - Related Links

Times and Time Zones

All times are in EDT time to prevent confusion due to time zone crossing. See the CTL18 flight status page for this flight to view local times or setup timezone preferences in your user account.

Time Position Orientation Groundspeed Altitude Reporting Facility
EDT Latitude Longitude Course Direction KTS MPH feet Rate Location/Type
09:06PM 42.2150 -83.5692 229° Southwest 104 120 1,900  Level Cleveland Center
09:08PM 42.1914 -83.5961 220° Southwest 101 116 2,900 540 Climbing Cleveland Center
09:09PM 42.1578 -83.6028 188° South 145 167 3,100  Climbing Cleveland Center
09:10PM 42.1161 -83.6036 181° South 149 171 3,000 -60 Descending Cleveland Center
09:11PM 42.0742 -83.6100 186° South 152 175 3,000  Level Cleveland Center
09:12PM 42.0394 -83.5917 159° South 170 196 3,100  Climbing Cleveland Center
09:13PM 42.0161 -83.5233 115° Southeast 185 213 3,100  Level Cleveland Center
09:14PM 41.9989 -83.4556 109° East 184 212 3,100 -60 Level Cleveland Center
09:15PM 41.9839 -83.3906 107° East 191 220 3,000 -60 Descending Cleveland Center
09:16PM 41.9647 -83.3200 110° East 186 214 3,000 180 Level Cleveland Center
09:17PM 41.9453 -83.2606 114° Southeast 176 203 3,400 480 Climbing Cleveland Center
09:18PM 41.9322 -83.2014 107° East 160 184 4,000 600 Climbing Cleveland Center
09:19PM 41.9167 -83.1422 109° East 157 181 4,700 540 Climbing Cleveland Center
09:20PM 41.8992 -83.0939 116° Southeast 159 183 5,100 120 Climbing Cleveland Center
09:21PM 41.8781 -83.0067 108° East 181 208 5,100 -60 Level Cleveland Center
09:22PM 41.8644 -82.9586 111° Southeast 182 209 5,000 -60 Descending Cleveland Center
09:23PM 41.8469 -82.8939 110° East 181 208 5,000 60 Level Cleveland Center
09:23PM 41.8392 -82.8686 112° Southeast 180 207 5,100  Climbing Cleveland Center
09:24PM 41.8333 -82.8489 112° Southeast 180 207 5,000 -120 Descending Cleveland Center
09:25PM 41.8136 -82.7842 112° Southeast 181 208 5,000  Level Cleveland Center
09:26PM 41.7964 -82.7167 109° East 183 211 5,000  Level Cleveland Center
09:27PM 41.7828 -82.6522 106° East 181 208 5,000  Level Cleveland Center
09:28PM 41.7653 -82.5903 111° Southeast 178 205 5,100  Climbing Cleveland Center
09:29PM 41.7475 -82.5286 111° Southeast 177 204 5,100  Level Cleveland Center
09:30PM 41.7297 -82.4611 109° East 176 203 5,100 -60 Level Cleveland Center
09:31PM 41.7142 -82.4022 109° East 182 209 5,000 -60 Descending Cleveland Center
09:32PM 41.6964 -82.3406 111° Southeast 175 201 5,000 -120 Level Cleveland Center
09:33PM 41.6828 -82.2792 107° East 178 205 4,800 -360 Descending Cleveland Center
09:34PM 41.6669 -82.2175 109° East 179 206 4,300 -540 Descending Cleveland Center
09:35PM 41.6533 -82.1450 104° East 187 215 3,800 -540 Descending Cleveland Center
09:36PM 41.6417 -82.0781 103° East 186 214 3,300 -540 Descending Cleveland Center
09:37PM 41.6239 -82.0108 109° East 181 208 2,800 -600 Descending Cleveland Center
09:38PM 41.6119 -81.9467 104° East 182 209 2,200 -420 Descending Cleveland Center
09:39PM 41.5961 -81.8881 110° East 167 192 2,000 -240 Descending Cleveland Center
09:40PM 41.5736 -81.8350 120° Southeast 159 183 1,800 -240 Descending Cleveland Center
09:41PM 41.5533 -81.7817 117° Southeast 147 169 1,600 -180 Descending Cleveland Center
09:42PM 41.5644 -81.7375 71° East 150 173 1,500 -240 Descending Cleveland Center
09:43PM 41.5586 -81.6931 100° East 115 132 1,200 -300 Descending Cleveland Center
09:44PM 41.5317 -81.6678 145° Southeast 102 117 900 -300 Descending Cleveland Center